createdAt,value
2023-01-23T00:01:25.017Z,5.68
2023-01-23T00:03:52.408Z,7.28
2023-01-23T00:06:19.167Z,7.30
2023-01-23T00:08:46.199Z,6.93
2023-01-23T00:11:14.735Z,8.35
2023-01-23T00:13:41.419Z,6.90
2023-01-23T00:16:09.918Z,7.57
2023-01-23T00:18:36.610Z,7.78
2023-01-23T00:21:07.397Z,6.90
2023-01-23T00:23:34.193Z,7.10
2023-01-23T00:26:08.320Z,6.45
2023-01-23T00:31:09.785Z,6.43
2023-01-23T00:33:36.451Z,6.40
2023-01-23T00:36:03.245Z,7.05
2023-01-23T00:38:29.929Z,7.22
2023-01-23T00:40:56.761Z,7.40
2023-01-23T00:43:24.079Z,7.35
2023-01-23T00:45:51.892Z,7.80
2023-01-23T00:48:18.534Z,8.00
2023-01-23T00:50:45.217Z,7.93
2023-01-23T00:53:13.123Z,8.32
2023-01-23T00:55:40.157Z,8.48
2023-01-23T00:58:07.214Z,8.60
2023-01-23T01:00:34.074Z,9.07
2023-01-23T01:03:00.748Z,8.70
2023-01-23T01:05:27.475Z,9.57
2023-01-23T01:07:54.146Z,9.27
2023-01-23T01:10:21.335Z,9.98
2023-01-23T01:12:48.071Z,9.70
2023-01-23T01:15:14.774Z,10.35
2023-01-23T01:17:41.444Z,10.98
2023-01-23T01:20:08.759Z,11.02
2023-01-23T01:22:35.410Z,11.55
2023-01-23T01:25:02.155Z,9.77
2023-01-23T01:27:29.108Z,11.15
2023-01-23T01:29:55.904Z,11.15
2023-01-23T01:32:22.526Z,11.13
2023-01-23T01:34:50.778Z,12.18
2023-01-23T01:37:17.434Z,11.40
2023-01-23T01:39:44.065Z,9.85
2023-01-23T01:42:10.684Z,11.55
2023-01-23T01:45:00.932Z,10.07
2023-01-23T01:47:27.677Z,11.15
2023-01-23T01:49:56.730Z,10.75
2023-01-23T01:52:23.536Z,11.70
2023-01-23T01:54:53.417Z,10.50
2023-01-23T01:57:48.833Z,10.82
2023-01-23T02:00:18.007Z,10.95
2023-01-23T02:02:55.585Z,10.68
2023-01-23T02:05:30.385Z,10.27
2023-01-23T02:08:19.130Z,10.88
2023-01-23T02:10:46.124Z,10.77
2023-01-23T02:13:36.020Z,11.48
2023-01-23T02:16:05.779Z,10.75
2023-01-23T02:18:33.101Z,11.48
2023-01-23T02:21:01.535Z,10.65
2023-01-23T02:23:55.857Z,11.65
2023-01-23T02:26:36.724Z,11.77
2023-01-23T02:29:03.867Z,11.95
2023-01-23T02:31:30.761Z,12.40
2023-01-23T02:33:58.443Z,11.27
2023-01-23T02:36:30.294Z,10.85
2023-01-23T02:39:10.949Z,11.55
2023-01-23T02:41:40.639Z,11.02
2023-01-23T02:44:28.619Z,10.52
2023-01-23T02:46:56.347Z,9.55
2023-01-23T02:49:23.208Z,9.65
2023-01-23T02:51:50.629Z,10.02
2023-01-23T02:54:17.400Z,11.05
2023-01-23T02:56:44.019Z,10.52
2023-01-23T02:59:29.082Z,10.95
2023-01-23T03:01:55.734Z,10.45
2023-01-23T03:04:22.431Z,10.30
2023-01-23T03:06:49.141Z,10.77
2023-01-23T03:09:16.477Z,10.68
2023-01-23T03:11:44.067Z,10.20
2023-01-23T03:14:18.206Z,9.85
2023-01-23T03:19:17.164Z,9.48
2023-01-23T03:21:43.801Z,10.48
2023-01-23T03:24:11.916Z,10.52
2023-01-23T03:26:39.918Z,10.52
2023-01-23T03:29:25.402Z,10.48
2023-01-23T03:31:52.369Z,11.38
2023-01-23T03:34:19.309Z,11.25
2023-01-23T03:36:45.937Z,10.50
2023-01-23T03:39:41.584Z,12.07
2023-01-23T03:42:08.283Z,10.20
2023-01-23T03:44:34.971Z,11.43
2023-01-23T03:47:01.628Z,11.25
2023-01-23T03:49:28.297Z,10.68
2023-01-23T03:51:54.964Z,11.85
2023-01-23T03:54:21.601Z,10.75
2023-01-23T03:56:48.246Z,11.20
2023-01-23T03:59:14.862Z,10.52
2023-01-23T04:01:41.566Z,11.25
2023-01-23T04:04:08.404Z,11.77
2023-01-23T04:06:35.220Z,11.45
2023-01-23T04:09:01.857Z,10.60
2023-01-23T04:11:28.787Z,11.35
2023-01-23T04:13:55.440Z,11.18
2023-01-23T04:16:22.974Z,11.23
2023-01-23T04:18:50.802Z,11.43
2023-01-23T04:21:17.774Z,11.35
2023-01-23T04:23:44.415Z,11.48
2023-01-23T04:26:11.089Z,11.50
2023-01-23T04:28:37.932Z,12.02
2023-01-23T04:31:05.324Z,11.75
2023-01-23T04:33:32.021Z,13.10
2023-01-23T04:36:00.454Z,12.73
2023-01-23T04:38:27.713Z,10.85
2023-01-23T04:40:54.615Z,11.35
2023-01-23T04:43:21.252Z,12.35
2023-01-23T04:45:50.519Z,12.50
2023-01-23T04:48:17.146Z,12.90
2023-01-23T04:50:43.776Z,11.93
2023-01-23T04:53:10.577Z,11.50
2023-01-23T04:55:37.413Z,12.50
2023-01-23T04:58:04.026Z,12.38
2023-01-23T05:00:30.695Z,11.20
2023-01-23T05:02:57.569Z,11.88
2023-01-23T05:05:24.681Z,12.23
2023-01-23T05:07:51.529Z,13.48
2023-01-23T05:10:18.491Z,13.43
2023-01-23T05:12:45.183Z,12.15
2023-01-23T05:15:11.951Z,11.95
2023-01-23T05:17:38.556Z,13.05
2023-01-23T05:20:05.979Z,12.13
2023-01-23T05:22:33.578Z,12.43
2023-01-23T05:25:00.402Z,11.50
2023-01-23T05:27:27.072Z,12.60
2023-01-23T05:29:53.724Z,11.60
2023-01-23T05:32:20.678Z,12.63
2023-01-23T05:34:47.400Z,12.82
2023-01-23T05:37:14.046Z,12.30
2023-01-23T05:39:40.710Z,13.27
2023-01-23T05:42:07.326Z,12.52
2023-01-23T05:44:34.019Z,13.13
2023-01-23T05:47:00.678Z,13.63
2023-01-23T05:49:27.289Z,12.82
2023-01-23T05:51:53.953Z,12.27
2023-01-23T05:54:20.618Z,12.30
2023-01-23T05:56:47.299Z,13.00
2023-01-23T05:59:14.130Z,12.40
2023-01-23T06:01:40.787Z,11.57
2023-01-23T06:04:07.655Z,11.75
2023-01-23T06:06:34.385Z,11.80
2023-01-23T06:09:01.059Z,11.95
2023-01-23T06:11:27.863Z,12.98
2023-01-23T06:13:54.504Z,11.98
2023-01-23T06:16:21.276Z,12.85
2023-01-23T06:18:48.008Z,11.80
2023-01-23T06:21:15.271Z,11.70
2023-01-23T06:23:41.946Z,12.80
2023-01-23T06:26:08.605Z,12.55
2023-01-23T06:28:35.286Z,11.65
2023-01-23T06:31:02.633Z,11.80
2023-01-23T06:33:29.929Z,12.45
2023-01-23T06:36:01.016Z,12.48
2023-01-23T06:38:28.140Z,12.27
2023-01-23T06:40:55.008Z,12.77
2023-01-23T06:43:21.958Z,12.80
2023-01-23T06:45:48.850Z,12.35
2023-01-23T06:48:15.510Z,11.57
2023-01-23T06:50:42.598Z,12.23
2023-01-23T06:53:09.503Z,12.48
2023-01-23T06:55:36.189Z,13.40
2023-01-23T06:58:02.837Z,13.70
2023-01-23T07:00:29.461Z,13.10
2023-01-23T07:02:58.910Z,11.60
2023-01-23T07:05:25.736Z,11.93
2023-01-23T07:07:52.350Z,12.57
2023-01-23T07:10:19.362Z,12.43
2023-01-23T07:12:46.297Z,11.40
2023-01-23T07:15:13.180Z,12.38
2023-01-23T07:17:40.004Z,12.43
2023-01-23T07:20:07.185Z,12.70
2023-01-23T07:22:33.830Z,13.75
2023-01-23T07:25:00.510Z,12.93
2023-01-23T07:27:27.223Z,12.98
2023-01-23T07:29:53.865Z,12.88
2023-01-23T07:32:20.493Z,12.80
2023-01-23T07:34:47.155Z,31.83
2023-01-23T07:37:13.885Z,54.38
2023-01-23T07:39:40.547Z,32.58
2023-01-23T07:42:07.225Z,17.70
2023-01-23T07:44:33.870Z,15.32
2023-01-23T07:47:00.637Z,14.68
2023-01-23T07:49:27.310Z,14.45
2023-01-23T07:51:53.993Z,14.70
2023-01-23T07:54:20.622Z,13.98
2023-01-23T07:56:49.934Z,14.25
2023-01-23T07:59:16.807Z,13.30
2023-01-23T08:01:43.699Z,13.75
2023-01-23T08:04:10.356Z,13.38
2023-01-23T08:06:38.175Z,14.93
2023-01-23T08:09:04.859Z,16.00
2023-01-23T08:11:34.214Z,14.80
2023-01-23T08:14:01.238Z,15.27
2023-01-23T08:16:28.151Z,15.02
2023-01-23T08:18:54.871Z,15.45
2023-01-23T08:21:21.664Z,15.30
2023-01-23T08:23:48.340Z,15.68
2023-01-23T08:26:16.390Z,15.90
2023-01-23T08:28:43.618Z,15.05
2023-01-23T08:31:11.078Z,16.65
2023-01-23T08:33:38.177Z,15.70
2023-01-23T08:36:05.542Z,16.17
2023-01-23T08:38:32.273Z,14.80
2023-01-23T08:41:00.141Z,16.17
2023-01-23T08:43:26.761Z,15.38
2023-01-23T08:45:54.494Z,15.48
2023-01-23T08:48:22.278Z,15.35
2023-01-23T08:50:49.136Z,15.30
2023-01-23T08:53:15.812Z,16.02
2023-01-23T08:55:42.875Z,15.98
2023-01-23T08:58:10.030Z,14.93
2023-01-23T09:00:36.706Z,15.27
2023-01-23T09:03:03.444Z,15.07
2023-01-23T09:05:30.203Z,15.85
2023-01-23T09:08:03.072Z,20.75
2023-01-23T09:10:29.724Z,20.33
2023-01-23T09:12:56.944Z,19.38
2023-01-23T09:15:23.633Z,15.77
2023-01-23T09:17:50.293Z,15.57
2023-01-23T09:20:17.258Z,16.48
2023-01-23T09:22:44.131Z,15.88
2023-01-23T09:25:11.259Z,16.90
2023-01-23T09:27:37.906Z,19.35
2023-01-23T09:30:05.102Z,15.93
2023-01-23T09:32:31.739Z,15.77
2023-01-23T09:34:58.405Z,17.30
2023-01-23T09:37:25.084Z,16.13
2023-01-23T09:39:51.718Z,17.45
2023-01-23T09:42:21.109Z,16.80
2023-01-23T09:44:50.547Z,16.38
2023-01-23T09:47:39.039Z,17.60
2023-01-23T09:50:12.328Z,16.25
2023-01-23T09:52:49.831Z,16.93
2023-01-23T09:55:42.767Z,16.23
2023-01-23T09:58:19.854Z,17.02
2023-01-23T10:00:46.552Z,19.25
2023-01-23T10:03:15.373Z,21.42
2023-01-23T10:06:05.625Z,18.40
2023-01-23T10:08:32.217Z,17.23
2023-01-23T10:11:01.084Z,16.48
2023-01-23T10:13:35.742Z,16.65
2023-01-23T10:16:18.986Z,14.77
2023-01-23T10:19:16.271Z,15.90
2023-01-23T10:21:51.932Z,17.15
2023-01-23T10:24:40.752Z,17.55
2023-01-23T10:27:20.095Z,16.75
2023-01-23T10:29:52.759Z,14.93
2023-01-23T10:35:03.856Z,15.45
2023-01-23T10:37:35.668Z,22.73
2023-01-23T10:40:05.873Z,16.15
2023-01-23T10:42:32.567Z,16.33
2023-01-23T10:44:59.230Z,16.73
2023-01-23T10:47:38.842Z,15.63
2023-01-23T10:50:07.347Z,15.98
2023-01-23T10:52:39.095Z,15.93
2023-01-23T10:55:24.696Z,15.80
2023-01-23T10:57:54.698Z,15.13
2023-01-23T11:00:47.459Z,14.98
2023-01-23T11:03:20.149Z,15.93
2023-01-23T11:06:05.602Z,15.43
2023-01-23T11:08:34.310Z,14.35
2023-01-23T11:11:16.200Z,15.52
2023-01-23T11:13:43.832Z,14.50
2023-01-23T11:16:17.691Z,15.25
2023-01-23T11:19:12.637Z,16.05
2023-01-23T11:21:52.705Z,14.55
2023-01-23T11:24:39.017Z,13.90
2023-01-23T11:27:17.946Z,15.25
2023-01-23T11:30:01.233Z,15.60
2023-01-23T11:32:28.285Z,15.27
2023-01-23T11:35:04.087Z,15.05
2023-01-23T11:37:32.962Z,14.95
2023-01-23T11:40:13.941Z,15.35
2023-01-23T11:42:41.516Z,14.38
2023-01-23T11:45:20.309Z,14.63
2023-01-23T11:48:19.776Z,13.98
2023-01-23T11:51:19.477Z,15.07
2023-01-23T11:54:12.561Z,15.77
2023-01-23T11:57:05.188Z,16.73
2023-01-23T11:59:44.142Z,15.40
2023-01-23T12:02:17.846Z,17.23
2023-01-23T12:05:11.353Z,13.75
2023-01-23T12:08:20.447Z,15.77
2023-01-23T12:11:12.163Z,14.15
2023-01-23T12:13:51.310Z,14.32
2023-01-23T12:16:23.246Z,16.00
2023-01-23T12:19:20.523Z,14.85
2023-01-23T12:22:25.491Z,14.40
2023-01-23T12:25:22.798Z,14.27
2023-01-23T12:27:50.530Z,14.57
2023-01-23T12:30:38.867Z,14.45
2023-01-23T12:33:18.410Z,14.45
2023-01-23T12:35:56.882Z,13.65
2023-01-23T12:38:55.762Z,13.82
2023-01-23T12:41:41.812Z,12.95
2023-01-23T12:44:21.496Z,14.45
2023-01-23T12:47:14.524Z,15.50
2023-01-23T12:49:46.347Z,13.95
2023-01-23T12:52:35.978Z,16.33
2023-01-23T12:55:06.889Z,14.25
2023-01-23T12:57:59.854Z,15.68
2023-01-23T13:00:52.591Z,14.90
2023-01-23T13:03:46.227Z,14.02
2023-01-23T13:06:35.068Z,14.00
2023-01-23T13:09:37.401Z,13.82
2023-01-23T13:12:22.900Z,14.35
2023-01-23T13:15:34.377Z,14.57
2023-01-23T13:18:01.788Z,14.60
2023-01-23T13:20:53.516Z,15.23
2023-01-23T13:23:27.030Z,15.38
2023-01-23T13:26:23.019Z,14.90
2023-01-23T13:28:51.521Z,14.50
2023-01-23T13:31:36.447Z,13.70
2023-01-23T13:34:16.309Z,16.35
2023-01-23T13:36:46.775Z,15.25
2023-01-23T13:39:13.458Z,14.77
2023-01-23T13:41:40.122Z,15.68
2023-01-23T13:44:27.205Z,15.00
2023-01-23T14:21:54.721Z,14.85
2023-01-23T14:24:26.375Z,14.00
2023-01-23T14:27:08.394Z,14.73
2023-01-23T14:29:35.383Z,14.13
2023-01-23T14:32:02.309Z,13.70
2023-01-23T14:34:28.973Z,14.43
2023-01-23T14:37:06.139Z,14.70
2023-01-23T14:39:34.282Z,16.08
2023-01-23T14:42:02.651Z,14.93
2023-01-23T14:44:46.331Z,13.60
2023-01-23T14:47:37.911Z,13.85
2023-01-23T14:50:09.433Z,14.30
2023-01-23T14:52:36.240Z,13.75
2023-01-23T14:55:07.733Z,13.73
2023-01-23T14:57:34.881Z,13.93
2023-01-23T15:00:01.545Z,14.05
2023-01-23T15:02:31.606Z,15.15
2023-01-23T15:05:13.342Z,13.68
2023-01-23T15:07:44.697Z,13.02
2023-01-23T15:10:27.019Z,14.32
2023-01-23T15:13:05.199Z,13.40
2023-01-23T15:15:33.121Z,13.15
2023-01-23T15:18:00.641Z,13.70
2023-01-23T15:20:41.312Z,13.82
2023-01-23T15:23:31.663Z,14.15
2023-01-23T15:26:19.448Z,13.25
2023-01-23T15:28:51.109Z,15.38
2023-01-23T15:31:27.843Z,13.38
2023-01-23T15:33:55.206Z,13.63
2023-01-23T15:36:26.144Z,13.80
2023-01-23T15:38:53.191Z,12.93
2023-01-23T15:41:33.756Z,13.50
2023-01-23T15:44:01.103Z,14.60
2023-01-23T15:46:27.847Z,14.80
2023-01-23T15:48:54.591Z,13.73
2023-01-23T15:51:21.244Z,14.30
2023-01-23T15:53:47.940Z,14.50
2023-01-23T15:56:27.409Z,15.32
2023-01-23T15:58:54.063Z,14.23
2023-01-23T16:01:21.024Z,14.23
2023-01-23T16:03:47.757Z,13.65
2023-01-23T16:06:17.744Z,13.77
2023-01-23T16:08:45.021Z,13.90
2023-01-23T16:11:13.804Z,14.00
2023-01-23T16:13:40.560Z,16.17
2023-01-23T16:16:17.469Z,15.88
2023-01-23T16:18:44.496Z,13.43
2023-01-23T16:21:15.678Z,14.00
2023-01-23T16:23:47.606Z,13.20
2023-01-23T16:26:21.743Z,12.90
2023-01-23T16:28:48.368Z,12.73
2023-01-23T16:31:16.011Z,14.23
2023-01-23T16:33:43.059Z,13.60
2023-01-23T16:36:17.306Z,13.20
2023-01-23T16:38:48.214Z,13.27
2023-01-23T16:41:14.841Z,13.70
2023-01-23T16:43:41.481Z,14.70
2023-01-23T16:46:09.227Z,13.93
2023-01-23T16:48:35.981Z,12.80
2023-01-23T16:51:14.437Z,13.52
2023-01-23T16:53:42.648Z,13.88
2023-01-23T16:56:15.497Z,13.95
2023-01-23T16:58:42.202Z,14.25
2023-01-23T17:01:13.669Z,14.93
2023-01-23T17:03:43.061Z,14.98
2023-01-23T17:06:14.260Z,15.48
2023-01-23T17:08:40.890Z,14.90
2023-01-23T17:11:07.515Z,14.15
2023-01-23T17:13:35.714Z,15.38
2023-01-23T17:16:03.282Z,16.38
2023-01-23T17:18:32.086Z,15.80
2023-01-23T17:20:58.711Z,15.10
2023-01-23T17:23:25.614Z,15.10
2023-01-23T17:26:00.268Z,15.85
2023-01-23T17:28:28.136Z,15.05
2023-01-23T17:30:55.156Z,15.20
2023-01-23T17:33:23.411Z,15.73
2023-01-23T17:35:50.143Z,15.10
2023-01-23T17:38:17.600Z,14.45
2023-01-23T17:40:45.318Z,16.35
2023-01-23T17:43:13.146Z,14.85
2023-01-23T17:45:40.768Z,14.82
2023-01-23T17:48:17.994Z,15.15
2023-01-23T17:50:45.440Z,14.57
2023-01-23T17:53:13.591Z,14.65
2023-01-23T17:55:43.541Z,14.48
2023-01-23T17:58:10.427Z,15.13
2023-01-23T18:00:37.969Z,13.90
2023-01-23T18:03:04.604Z,14.00
2023-01-23T18:05:31.375Z,14.50
2023-01-23T18:07:58.027Z,17.45
2023-01-23T18:10:28.569Z,17.45
2023-01-23T18:13:07.195Z,18.42
2023-01-23T18:15:56.870Z,14.23
2023-01-23T18:18:37.409Z,14.27
2023-01-23T18:21:05.348Z,14.70
2023-01-23T18:23:32.688Z,15.13
2023-01-23T18:26:32.540Z,14.38
2023-01-23T18:29:26.107Z,13.40
2023-01-23T18:32:34.864Z,14.45
2023-01-23T18:35:16.729Z,12.93
2023-01-23T18:37:49.145Z,14.93
2023-01-23T18:40:24.122Z,14.65
2023-01-23T18:43:18.690Z,13.52
2023-01-23T18:45:45.362Z,14.57
2023-01-23T18:48:24.529Z,13.88
2023-01-23T18:51:18.433Z,14.02
2023-01-23T18:54:07.206Z,18.25
2023-01-23T18:56:55.863Z,20.70
2023-01-23T18:59:23.944Z,23.20
2023-01-23T19:01:55.731Z,15.10
2023-01-23T19:04:31.035Z,17.60
2023-01-23T19:06:58.638Z,18.00
2023-01-23T19:09:25.260Z,24.08
2023-01-23T19:11:58.059Z,16.27
2023-01-23T19:14:37.484Z,16.15
2023-01-23T19:17:33.450Z,19.45
2023-01-23T19:20:16.746Z,15.85
2023-01-23T19:22:55.292Z,18.35
2023-01-23T19:25:22.828Z,16.20
2023-01-23T19:27:52.578Z,19.13
2023-01-23T19:30:23.510Z,19.60
2023-01-23T19:32:50.356Z,16.13
2023-01-23T19:35:17.112Z,18.88
2023-01-23T19:37:45.151Z,13.15
2023-01-23T19:40:13.123Z,14.35
2023-01-23T19:42:52.246Z,11.35
2023-01-23T19:45:25.323Z,12.90
2023-01-23T19:47:53.321Z,13.68
2023-01-23T19:50:20.264Z,12.88
2023-01-23T19:52:49.336Z,11.90
2023-01-23T19:55:28.207Z,12.02
2023-01-23T19:57:58.297Z,11.65
2023-01-23T20:00:29.608Z,11.52
2023-01-23T20:02:56.335Z,10.98
2023-01-23T20:05:23.251Z,11.40
2023-01-23T20:07:50.119Z,10.98
2023-01-23T20:10:20.110Z,11.27
2023-01-23T20:12:58.958Z,10.55
2023-01-23T20:15:25.734Z,12.32
2023-01-23T20:17:53.097Z,10.25
2023-01-23T20:20:20.254Z,9.70
2023-01-23T20:22:47.274Z,10.48
2023-01-23T20:25:15.682Z,10.70
2023-01-23T20:27:42.553Z,10.98
2023-01-23T20:30:12.904Z,9.45
2023-01-23T20:32:39.599Z,10.25
2023-01-23T20:35:06.524Z,9.98
2023-01-23T20:37:33.273Z,10.68
2023-01-23T20:40:00.220Z,10.02
2023-01-23T20:42:26.850Z,10.23
2023-01-23T20:44:56.973Z,12.48
2023-01-23T20:47:23.768Z,9.35
2023-01-23T20:49:50.460Z,9.95
2023-01-23T20:52:35.662Z,10.15
2023-01-23T20:55:02.346Z,9.45
2023-01-23T20:57:48.931Z,10.43
2023-01-23T21:00:16.072Z,9.23
2023-01-23T21:02:42.757Z,9.48
2023-01-23T21:05:09.428Z,8.63
2023-01-23T21:07:36.238Z,9.27
2023-01-23T21:10:03.141Z,8.82
2023-01-23T21:12:29.835Z,9.70
2023-01-23T21:14:56.655Z,9.18
2023-01-23T21:17:23.481Z,9.65
2023-01-23T21:19:50.357Z,8.20
2023-01-23T21:22:17.034Z,8.27
2023-01-23T21:24:43.977Z,8.65
2023-01-23T21:27:10.662Z,8.15
2023-01-23T21:29:37.817Z,8.00
2023-01-23T21:32:06.994Z,9.27
2023-01-23T21:34:33.817Z,8.45
2023-01-23T21:37:00.732Z,9.80
2023-01-23T21:39:27.373Z,8.75
2023-01-23T21:41:54.055Z,8.57
2023-01-23T21:44:20.703Z,8.95
2023-01-23T21:46:47.371Z,9.05
2023-01-23T21:49:14.113Z,9.02
2023-01-23T21:51:40.787Z,9.15
2023-01-23T21:54:09.753Z,8.10
2023-01-23T21:56:36.437Z,8.52
2023-01-23T21:59:03.143Z,8.63
2023-01-23T22:01:33.098Z,8.57
2023-01-23T22:04:04.352Z,9.05
2023-01-23T22:06:31.362Z,9.07
2023-01-23T22:08:58.110Z,9.18
2023-01-23T22:11:24.733Z,8.45
2023-01-23T22:13:51.401Z,8.48
2023-01-23T22:16:19.003Z,8.98
2023-01-23T22:18:46.473Z,9.15
2023-01-23T22:21:13.299Z,8.50
2023-01-23T22:23:40.094Z,8.65
2023-01-23T22:26:08.196Z,8.77
2023-01-23T22:28:38.083Z,9.20
2023-01-23T22:31:12.430Z,7.75
2023-01-23T22:33:41.124Z,8.70
2023-01-23T22:36:08.927Z,9.10
2023-01-23T22:38:38.086Z,8.85
2023-01-23T22:41:05.865Z,8.30
2023-01-23T22:43:33.290Z,8.82
2023-01-23T22:46:11.237Z,8.40
2023-01-23T22:48:38.823Z,9.15
2023-01-23T22:51:07.329Z,8.85
2023-01-23T22:53:34.030Z,8.70
2023-01-23T22:56:04.731Z,7.88
2023-01-23T22:58:31.346Z,8.10
2023-01-23T23:00:58.043Z,7.57
2023-01-23T23:03:24.769Z,7.88
2023-01-23T23:05:58.527Z,7.38
2023-01-23T23:08:25.156Z,6.78
2023-01-23T23:11:19.566Z,6.88
2023-01-23T23:13:46.521Z,7.82
2023-01-23T23:16:17.959Z,8.55
2023-01-23T23:18:45.596Z,8.30
2023-01-23T23:21:13.440Z,8.50
2023-01-23T23:23:40.239Z,7.82
2023-01-23T23:26:07.635Z,8.82
2023-01-23T23:28:34.377Z,8.60
2023-01-23T23:31:01.099Z,8.75
2023-01-23T23:33:27.817Z,8.20
2023-01-23T23:35:54.517Z,8.23
2023-01-23T23:38:21.304Z,8.43
2023-01-23T23:41:01.792Z,8.52
2023-01-23T23:43:28.659Z,8.43
2023-01-23T23:45:56.938Z,7.95
2023-01-23T23:48:23.847Z,8.23
2023-01-23T23:50:50.681Z,8.45
2023-01-23T23:53:17.706Z,7.45
2023-01-23T23:55:44.395Z,7.15
2023-01-23T23:58:11.244Z,6.90
